sensor_id;sensor_type;location;lat;lon;timestamp;temperature;humidity
5055;DHT22;13829;48.990;8.346;2023-02-05T00:00:45;4.10;99.90
5055;DHT22;13829;48.990;8.346;2023-02-05T00:03:12;4.10;99.90
5055;DHT22;13829;48.990;8.346;2023-02-05T00:05:39;4.20;99.90
5055;DHT22;13829;48.990;8.346;2023-02-05T00:08:08;4.20;99.90
5055;DHT22;13829;48.990;8.346;2023-02-05T00:10:35;4.30;99.90
5055;DHT22;13829;48.990;8.346;2023-02-05T00:13:02;4.20;99.90
5055;DHT22;13829;48.990;8.346;2023-02-05T00:15:29;4.20;99.90
5055;DHT22;13829;48.990;8.346;2023-02-05T00:17:56;4.20;99.90
5055;DHT22;13829;48.990;8.346;2023-02-05T00:20:23;4.20;99.90
5055;DHT22;13829;48.990;8.346;2023-02-05T00:22:50;4.20;99.90
5055;DHT22;13829;48.990;8.346;2023-02-05T00:25:18;4.20;99.90
5055;DHT22;13829;48.990;8.346;2023-02-05T00:27:45;4.30;99.90
5055;DHT22;13829;48.990;8.346;2023-02-05T00:30:12;4.30;99.90
5055;DHT22;13829;48.990;8.346;2023-02-05T00:32:39;4.30;99.90
5055;DHT22;13829;48.990;8.346;2023-02-05T00:35:06;4.40;99.90
5055;DHT22;13829;48.990;8.346;2023-02-05T00:37:34;4.40;99.90
5055;DHT22;13829;48.990;8.346;2023-02-05T00:40:00;4.50;99.90
5055;DHT22;13829;48.990;8.346;2023-02-05T00:42:29;4.40;99.90
5055;DHT22;13829;48.990;8.346;2023-02-05T00:44:56;4.40;99.90
5055;DHT22;13829;48.990;8.346;2023-02-05T00:47:23;4.30;99.90
5055;DHT22;13829;48.990;8.346;2023-02-05T00:49:50;4.30;99.90
5055;DHT22;13829;48.990;8.346;2023-02-05T00:52:17;4.40;99.90
5055;DHT22;13829;48.990;8.346;2023-02-05T00:54:44;4.40;99.90
5055;DHT22;13829;48.990;8.346;2023-02-05T00:57:11;4.40;99.90
5055;DHT22;13829;48.990;8.346;2023-02-05T00:59:40;4.40;99.90
5055;DHT22;13829;48.990;8.346;2023-02-05T01:02:07;4.40;99.90
5055;DHT22;13829;48.990;8.346;2023-02-05T01:04:33;4.40;99.90
5055;DHT22;13829;48.990;8.346;2023-02-05T01:07:00;4.40;99.90
5055;DHT22;13829;48.990;8.346;2023-02-05T01:09:27;4.40;99.90
5055;DHT22;13829;48.990;8.346;2023-02-05T01:11:54;4.40;99.90
5055;DHT22;13829;48.990;8.346;2023-02-05T01:14:21;4.40;99.90
5055;DHT22;13829;48.990;8.346;2023-02-05T01:16:50;4.50;99.90
5055;DHT22;13829;48.990;8.346;2023-02-05T01:19:17;4.50;99.90
5055;DHT22;13829;48.990;8.346;2023-02-05T01:21:44;4.40;99.90
5055;DHT22;13829;48.990;8.346;2023-02-05T01:24:11;4.40;99.90
5055;DHT22;13829;48.990;8.346;2023-02-05T01:26:37;4.30;99.90
5055;DHT22;13829;48.990;8.346;2023-02-05T01:29:04;4.40;99.90
5055;DHT22;13829;48.990;8.346;2023-02-05T01:31:31;4.30;99.90
5055;DHT22;13829;48.990;8.346;2023-02-05T01:34:00;4.30;99.90
5055;DHT22;13829;48.990;8.346;2023-02-05T01:36:27;4.30;99.90
5055;DHT22;13829;48.990;8.346;2023-02-05T01:38:54;4.20;99.90
5055;DHT22;13829;48.990;8.346;2023-02-05T01:41:20;4.10;99.90
5055;DHT22;13829;48.990;8.346;2023-02-05T01:44:08;4.00;99.90
5055;DHT22;13829;48.990;8.346;2023-02-05T01:46:37;3.90;99.90
5055;DHT22;13829;48.990;8.346;2023-02-05T01:49:11;3.90;99.90
5055;DHT22;13829;48.990;8.346;2023-02-05T01:51:44;3.90;99.90
5055;DHT22;13829;48.990;8.346;2023-02-05T01:54:13;3.90;99.90
5055;DHT22;13829;48.990;8.346;2023-02-05T01:56:45;4.00;99.90
5055;DHT22;13829;48.990;8.346;2023-02-05T01:59:17;4.00;99.90
5055;DHT22;13829;48.990;8.346;2023-02-05T02:01:46;4.00;99.90
5055;DHT22;13829;48.990;8.346;2023-02-05T02:04:29;4.10;99.90
5055;DHT22;13829;48.990;8.346;2023-02-05T02:07:01;4.20;99.90
5055;DHT22;13829;48.990;8.346;2023-02-05T02:09:29;4.20;99.90
5055;DHT22;13829;48.990;8.346;2023-02-05T02:11:57;4.20;99.90
5055;DHT22;13829;48.990;8.346;2023-02-05T02:14:24;4.20;99.90
5055;DHT22;13829;48.990;8.346;2023-02-05T02:16:54;4.20;99.90
5055;DHT22;13829;48.990;8.346;2023-02-05T02:19:30;4.20;99.90
5055;DHT22;13829;48.990;8.346;2023-02-05T02:22:16;4.10;99.90
5055;DHT22;13829;48.990;8.346;2023-02-05T02:25:10;4.20;99.90
5055;DHT22;13829;48.990;8.346;2023-02-05T02:27:56;4.20;99.90
5055;DHT22;13829;48.990;8.346;2023-02-05T02:30:32;4.10;99.90
5055;DHT22;13829;48.990;8.346;2023-02-05T02:33:07;4.10;99.90
5055;DHT22;13829;48.990;8.346;2023-02-05T02:35:43;4.20;99.90
5055;DHT22;13829;48.990;8.346;2023-02-05T02:38:21;4.20;99.90
5055;DHT22;13829;48.990;8.346;2023-02-05T02:40:54;4.30;99.90
5055;DHT22;13829;48.990;8.346;2023-02-05T02:43:31;4.20;99.90
5055;DHT22;13829;48.990;8.346;2023-02-05T02:46:04;4.30;99.90
5055;DHT22;13829;48.990;8.346;2023-02-05T02:48:37;4.20;99.90
5055;DHT22;13829;48.990;8.346;2023-02-05T02:51:08;4.20;99.90
5055;DHT22;13829;48.990;8.346;2023-02-05T02:53:41;4.30;99.90
5055;DHT22;13829;48.990;8.346;2023-02-05T02:56:12;4.30;99.90
5055;DHT22;13829;48.990;8.346;2023-02-05T02:58:46;4.40;99.90
5055;DHT22;13829;48.990;8.346;2023-02-05T03:01:17;4.40;99.90
5055;DHT22;13829;48.990;8.346;2023-02-05T03:03:51;4.40;99.90
5055;DHT22;13829;48.990;8.346;2023-02-05T03:06:25;4.50;99.90
5055;DHT22;13829;48.990;8.346;2023-02-05T03:08:59;4.40;99.90
5055;DHT22;13829;48.990;8.346;2023-02-05T03:11:29;4.50;99.90
5055;DHT22;13829;48.990;8.346;2023-02-05T03:13:58;4.60;99.90
5055;DHT22;13829;48.990;8.346;2023-02-05T03:16:26;4.70;99.90
5055;DHT22;13829;48.990;8.346;2023-02-05T03:18:55;4.80;99.90
5055;DHT22;13829;48.990;8.346;2023-02-05T03:21:25;4.80;99.90
5055;DHT22;13829;48.990;8.346;2023-02-05T03:23:56;4.70;99.90
5055;DHT22;13829;48.990;8.346;2023-02-05T03:26:24;4.70;99.90
5055;DHT22;13829;48.990;8.346;2023-02-05T03:28:53;4.80;99.90
5055;DHT22;13829;48.990;8.346;2023-02-05T03:31:27;4.70;99.90
5055;DHT22;13829;48.990;8.346;2023-02-05T03:34:09;4.70;99.90
5055;DHT22;13829;48.990;8.346;2023-02-05T03:36:51;4.60;99.90
5055;DHT22;13829;48.990;8.346;2023-02-05T03:39:32;4.60;99.90
5055;DHT22;13829;48.990;8.346;2023-02-05T03:42:26;4.60;99.90
5055;DHT22;13829;48.990;8.346;2023-02-05T03:45:29;4.70;99.90
5055;DHT22;13829;48.990;8.346;2023-02-05T03:48:12;4.70;99.90
5055;DHT22;13829;48.990;8.346;2023-02-05T03:50:52;4.70;99.90
5055;DHT22;13829;48.990;8.346;2023-02-05T03:53:31;4.70;99.90
5055;DHT22;13829;48.990;8.346;2023-02-05T03:56:06;4.70;99.90
5055;DHT22;13829;48.990;8.346;2023-02-05T03:58:40;4.80;99.90
5055;DHT22;13829;48.990;8.346;2023-02-05T04:01:11;4.80;99.90
5055;DHT22;13829;48.990;8.346;2023-02-05T04:03:40;4.80;99.90
5055;DHT22;13829;48.990;8.346;2023-02-05T04:06:07;4.90;99.90
5055;DHT22;13829;48.990;8.346;2023-02-05T04:08:34;4.80;99.90
5055;DHT22;13829;48.990;8.346;2023-02-05T04:11:01;4.80;99.90
5055;DHT22;13829;48.990;8.346;2023-02-05T04:13:28;4.80;99.90
5055;DHT22;13829;48.990;8.346;2023-02-05T04:15:55;4.90;99.90
5055;DHT22;13829;48.990;8.346;2023-02-05T04:18:22;4.90;99.90
5055;DHT22;13829;48.990;8.346;2023-02-05T04:20:51;4.80;99.90
5055;DHT22;13829;48.990;8.346;2023-02-05T04:23:18;4.80;99.90
5055;DHT22;13829;48.990;8.346;2023-02-05T04:25:45;4.80;99.90
5055;DHT22;13829;48.990;8.346;2023-02-05T04:28:12;4.80;99.90
5055;DHT22;13829;48.990;8.346;2023-02-05T04:30:38;4.90;99.90
5055;DHT22;13829;48.990;8.346;2023-02-05T04:33:05;4.90;99.90
5055;DHT22;13829;48.990;8.346;2023-02-05T04:35:34;5.20;99.90
5055;DHT22;13829;48.990;8.346;2023-02-05T04:38:02;5.00;99.90
5055;DHT22;13829;48.990;8.346;2023-02-05T04:40:29;5.00;99.90
5055;DHT22;13829;48.990;8.346;2023-02-05T04:42:56;5.00;99.90
5055;DHT22;13829;48.990;8.346;2023-02-05T04:45:23;4.90;99.90
5055;DHT22;13829;48.990;8.346;2023-02-05T04:47:53;4.90;99.90
5055;DHT22;13829;48.990;8.346;2023-02-05T04:50:21;5.00;99.90
5055;DHT22;13829;48.990;8.346;2023-02-05T04:52:48;5.00;99.90
5055;DHT22;13829;48.990;8.346;2023-02-05T04:55:16;4.90;99.90
5055;DHT22;13829;48.990;8.346;2023-02-05T04:57:43;4.70;99.90
5055;DHT22;13829;48.990;8.346;2023-02-05T05:00:11;4.90;99.90
5055;DHT22;13829;48.990;8.346;2023-02-05T05:02:39;4.90;99.90
5055;DHT22;13829;48.990;8.346;2023-02-05T05:05:06;4.90;99.90
5055;DHT22;13829;48.990;8.346;2023-02-05T05:07:34;5.00;99.90
5055;DHT22;13829;48.990;8.346;2023-02-05T05:10:01;5.00;99.90
5055;DHT22;13829;48.990;8.346;2023-02-05T05:12:29;5.00;99.90
5055;DHT22;13829;48.990;8.346;2023-02-05T05:14:56;5.00;99.90
5055;DHT22;13829;48.990;8.346;2023-02-05T05:17:23;5.10;99.90
5055;DHT22;13829;48.990;8.346;2023-02-05T05:19:50;5.00;99.90
5055;DHT22;13829;48.990;8.346;2023-02-05T05:22:17;5.10;99.90
5055;DHT22;13829;48.990;8.346;2023-02-05T05:24:44;5.10;99.90
5055;DHT22;13829;48.990;8.346;2023-02-05T05:27:11;5.10;99.90
5055;DHT22;13829;48.990;8.346;2023-02-05T05:29:39;5.10;99.90
5055;DHT22;13829;48.990;8.346;2023-02-05T05:32:06;5.10;99.90
5055;DHT22;13829;48.990;8.346;2023-02-05T05:34:33;5.10;99.90
5055;DHT22;13829;48.990;8.346;2023-02-05T05:37:00;5.20;99.90
5055;DHT22;13829;48.990;8.346;2023-02-05T05:39:28;5.30;99.90
5055;DHT22;13829;48.990;8.346;2023-02-05T05:42:12;5.40;99.90
5055;DHT22;13829;48.990;8.346;2023-02-05T05:44:58;5.50;99.90
5055;DHT22;13829;48.990;8.346;2023-02-05T05:47:25;5.50;99.90
5055;DHT22;13829;48.990;8.346;2023-02-05T05:49:52;5.40;99.90
5055;DHT22;13829;48.990;8.346;2023-02-05T05:52:19;5.40;99.90
5055;DHT22;13829;48.990;8.346;2023-02-05T05:54:46;5.30;99.90
5055;DHT22;13829;48.990;8.346;2023-02-05T05:57:13;5.30;99.90
5055;DHT22;13829;48.990;8.346;2023-02-05T05:59:40;5.20;99.90
5055;DHT22;13829;48.990;8.346;2023-02-05T06:02:08;5.20;99.90
5055;DHT22;13829;48.990;8.346;2023-02-05T06:04:35;5.20;99.90
5055;DHT22;13829;48.990;8.346;2023-02-05T06:07:02;5.20;99.90
5055;DHT22;13829;48.990;8.346;2023-02-05T06:09:29;5.30;99.90
5055;DHT22;13829;48.990;8.346;2023-02-05T06:11:56;5.40;99.90
5055;DHT22;13829;48.990;8.346;2023-02-05T06:14:23;5.50;99.90
5055;DHT22;13829;48.990;8.346;2023-02-05T06:16:50;5.60;99.90
5055;DHT22;13829;48.990;8.346;2023-02-05T06:19:21;5.50;99.90
5055;DHT22;13829;48.990;8.346;2023-02-05T06:21:48;5.50;99.90
5055;DHT22;13829;48.990;8.346;2023-02-05T06:24:15;5.50;99.90
5055;DHT22;13829;48.990;8.346;2023-02-05T06:26:42;5.50;99.90
5055;DHT22;13829;48.990;8.346;2023-02-05T06:29:09;5.40;99.90
5055;DHT22;13829;48.990;8.346;2023-02-05T06:31:36;5.50;99.90
5055;DHT22;13829;48.990;8.346;2023-02-05T06:34:03;5.70;99.90
5055;DHT22;13829;48.990;8.346;2023-02-05T06:36:31;5.40;99.90
5055;DHT22;13829;48.990;8.346;2023-02-05T06:38:58;5.50;99.90
5055;DHT22;13829;48.990;8.346;2023-02-05T06:41:25;5.50;99.90
5055;DHT22;13829;48.990;8.346;2023-02-05T06:43:52;5.60;99.90
5055;DHT22;13829;48.990;8.346;2023-02-05T06:46:19;5.50;99.90
5055;DHT22;13829;48.990;8.346;2023-02-05T06:48:46;5.60;99.90
5055;DHT22;13829;48.990;8.346;2023-02-05T06:51:13;5.60;99.90
5055;DHT22;13829;48.990;8.346;2023-02-05T06:53:41;5.70;99.90
5055;DHT22;13829;48.990;8.346;2023-02-05T06:56:09;5.70;99.90
5055;DHT22;13829;48.990;8.346;2023-02-05T06:58:36;5.60;99.90
5055;DHT22;13829;48.990;8.346;2023-02-05T07:01:03;5.60;99.90
5055;DHT22;13829;48.990;8.346;2023-02-05T07:03:30;5.60;99.90
5055;DHT22;13829;48.990;8.346;2023-02-05T07:06:01;5.50;99.90
5055;DHT22;13829;48.990;8.346;2023-02-05T07:08:29;5.60;99.90
5055;DHT22;13829;48.990;8.346;2023-02-05T07:10:57;5.60;99.90
5055;DHT22;13829;48.990;8.346;2023-02-05T07:13:25;5.70;99.90
5055;DHT22;13829;48.990;8.346;2023-02-05T07:15:52;5.70;99.90
5055;DHT22;13829;48.990;8.346;2023-02-05T07:18:19;5.80;99.90
5055;DHT22;13829;48.990;8.346;2023-02-05T07:20:46;5.80;99.90
5055;DHT22;13829;48.990;8.346;2023-02-05T07:23:13;5.80;99.90
5055;DHT22;13829;48.990;8.346;2023-02-05T07:25:40;5.70;99.90
5055;DHT22;13829;48.990;8.346;2023-02-05T07:28:08;5.90;99.90
5055;DHT22;13829;48.990;8.346;2023-02-05T07:30:36;5.80;99.90
5055;DHT22;13829;48.990;8.346;2023-02-05T07:33:03;5.70;99.90
5055;DHT22;13829;48.990;8.346;2023-02-05T07:35:31;5.70;99.90
5055;DHT22;13829;48.990;8.346;2023-02-05T07:38:01;5.70;99.90
5055;DHT22;13829;48.990;8.346;2023-02-05T07:40:28;5.70;99.90
5055;DHT22;13829;48.990;8.346;2023-02-05T07:42:55;5.70;99.90
5055;DHT22;13829;48.990;8.346;2023-02-05T07:45:24;5.70;99.90
5055;DHT22;13829;48.990;8.346;2023-02-05T07:47:51;5.70;99.90
5055;DHT22;13829;48.990;8.346;2023-02-05T07:50:18;5.70;99.90
5055;DHT22;13829;48.990;8.346;2023-02-05T07:52:45;5.70;99.90
5055;DHT22;13829;48.990;8.346;2023-02-05T07:55:12;5.70;99.90
5055;DHT22;13829;48.990;8.346;2023-02-05T07:57:39;5.70;99.90
5055;DHT22;13829;48.990;8.346;2023-02-05T08:00:08;5.70;99.90
5055;DHT22;13829;48.990;8.346;2023-02-05T08:02:37;5.60;99.90
5055;DHT22;13829;48.990;8.346;2023-02-05T08:05:05;5.70;99.90
5055;DHT22;13829;48.990;8.346;2023-02-05T08:07:32;5.70;99.90
5055;DHT22;13829;48.990;8.346;2023-02-05T08:10:00;5.60;99.90
5055;DHT22;13829;48.990;8.346;2023-02-05T08:12:27;5.60;99.90
5055;DHT22;13829;48.990;8.346;2023-02-05T08:14:54;5.50;99.90
5055;DHT22;13829;48.990;8.346;2023-02-05T08:17:21;5.40;99.90
5055;DHT22;13829;48.990;8.346;2023-02-05T08:19:50;5.50;99.90
5055;DHT22;13829;48.990;8.346;2023-02-05T08:22:17;5.50;99.90
5055;DHT22;13829;48.990;8.346;2023-02-05T08:24:44;5.50;99.90
5055;DHT22;13829;48.990;8.346;2023-02-05T08:27:11;5.50;99.90
5055;DHT22;13829;48.990;8.346;2023-02-05T08:29:38;5.50;99.90
5055;DHT22;13829;48.990;8.346;2023-02-05T08:32:05;5.50;99.90
5055;DHT22;13829;48.990;8.346;2023-02-05T08:34:32;5.80;99.90
5055;DHT22;13829;48.990;8.346;2023-02-05T08:37:01;5.70;99.90
5055;DHT22;13829;48.990;8.346;2023-02-05T08:39:28;5.80;99.90
5055;DHT22;13829;48.990;8.346;2023-02-05T08:41:55;5.80;99.90
5055;DHT22;13829;48.990;8.346;2023-02-05T08:44:22;5.80;99.90
5055;DHT22;13829;48.990;8.346;2023-02-05T08:46:49;5.80;99.90
5055;DHT22;13829;48.990;8.346;2023-02-05T08:49:16;5.80;99.90
5055;DHT22;13829;48.990;8.346;2023-02-05T08:51:43;5.80;99.90
5055;DHT22;13829;48.990;8.346;2023-02-05T08:54:12;5.80;99.90
5055;DHT22;13829;48.990;8.346;2023-02-05T08:56:41;5.90;99.90
5055;DHT22;13829;48.990;8.346;2023-02-05T08:59:09;5.90;99.90
5055;DHT22;13829;48.990;8.346;2023-02-05T09:01:37;5.90;99.90
5055;DHT22;13829;48.990;8.346;2023-02-05T09:04:05;5.80;99.90
5055;DHT22;13829;48.990;8.346;2023-02-05T09:06:32;5.90;99.90
5055;DHT22;13829;48.990;8.346;2023-02-05T09:08:59;6.00;99.90
5055;DHT22;13829;48.990;8.346;2023-02-05T09:11:28;6.00;99.90
5055;DHT22;13829;48.990;8.346;2023-02-05T09:13:56;6.00;99.90
5055;DHT22;13829;48.990;8.346;2023-02-05T09:16:24;6.10;99.90
5055;DHT22;13829;48.990;8.346;2023-02-05T09:18:53;6.20;99.90
5055;DHT22;13829;48.990;8.346;2023-02-05T09:21:20;6.20;99.90
5055;DHT22;13829;48.990;8.346;2023-02-05T09:23:48;6.20;99.90
5055;DHT22;13829;48.990;8.346;2023-02-05T09:26:15;6.20;99.90
5055;DHT22;13829;48.990;8.346;2023-02-05T09:28:43;6.30;99.90
5055;DHT22;13829;48.990;8.346;2023-02-05T09:31:12;6.30;99.90
5055;DHT22;13829;48.990;8.346;2023-02-05T09:33:41;6.40;99.90
5055;DHT22;13829;48.990;8.346;2023-02-05T09:36:11;6.50;99.90
5055;DHT22;13829;48.990;8.346;2023-02-05T09:38:41;6.40;99.90
5055;DHT22;13829;48.990;8.346;2023-02-05T09:41:16;6.50;99.90
5055;DHT22;13829;48.990;8.346;2023-02-05T09:43:56;6.50;99.90
5055;DHT22;13829;48.990;8.346;2023-02-05T09:46:37;6.50;99.90
5055;DHT22;13829;48.990;8.346;2023-02-05T09:49:15;6.50;99.90
5055;DHT22;13829;48.990;8.346;2023-02-05T09:51:45;6.60;99.90
5055;DHT22;13829;48.990;8.346;2023-02-05T09:54:18;6.50;99.90
5055;DHT22;13829;48.990;8.346;2023-02-05T09:56:49;6.50;99.90
5055;DHT22;13829;48.990;8.346;2023-02-05T09:59:22;6.50;99.90
5055;DHT22;13829;48.990;8.346;2023-02-05T10:01:54;6.50;99.90
5055;DHT22;13829;48.990;8.346;2023-02-05T10:04:23;6.50;99.90
5055;DHT22;13829;48.990;8.346;2023-02-05T10:10:06;6.50;99.90
5055;DHT22;13829;48.990;8.346;2023-02-05T10:12:56;6.60;99.90
5055;DHT22;13829;48.990;8.346;2023-02-05T10:15:48;6.50;99.90
5055;DHT22;13829;48.990;8.346;2023-02-05T10:18:42;6.50;99.90
5055;DHT22;13829;48.990;8.346;2023-02-05T10:21:33;6.50;99.90
5055;DHT22;13829;48.990;8.346;2023-02-05T10:24:24;6.50;99.90
5055;DHT22;13829;48.990;8.346;2023-02-05T10:27:11;6.50;99.90
5055;DHT22;13829;48.990;8.346;2023-02-05T10:29:51;6.40;99.90
5055;DHT22;13829;48.990;8.346;2023-02-05T10:32:36;6.40;99.90
5055;DHT22;13829;48.990;8.346;2023-02-05T10:35:21;6.40;99.90
5055;DHT22;13829;48.990;8.346;2023-02-05T10:37:52;6.40;99.90
5055;DHT22;13829;48.990;8.346;2023-02-05T10:40:23;6.40;99.90
5055;DHT22;13829;48.990;8.346;2023-02-05T10:42:56;6.30;99.90
5055;DHT22;13829;48.990;8.346;2023-02-05T10:45:28;6.30;99.90
5055;DHT22;13829;48.990;8.346;2023-02-05T10:50:57;6.10;99.90
5055;DHT22;13829;48.990;8.346;2023-02-05T10:53:28;6.10;99.90
5055;DHT22;13829;48.990;8.346;2023-02-05T10:55:56;6.10;99.90
5055;DHT22;13829;48.990;8.346;2023-02-05T10:58:38;6.20;99.90
5055;DHT22;13829;48.990;8.346;2023-02-05T11:01:13;6.20;99.90
5055;DHT22;13829;48.990;8.346;2023-02-05T11:03:51;6.20;99.90
5055;DHT22;13829;48.990;8.346;2023-02-05T11:06:22;6.20;99.90
5055;DHT22;13829;48.990;8.346;2023-02-05T11:08:52;6.20;99.90
5055;DHT22;13829;48.990;8.346;2023-02-05T11:11:21;6.30;99.90
5055;DHT22;13829;48.990;8.346;2023-02-05T11:13:54;6.30;99.90
5055;DHT22;13829;48.990;8.346;2023-02-05T11:16:34;6.30;99.90
5055;DHT22;13829;48.990;8.346;2023-02-05T11:19:18;6.40;99.90
5055;DHT22;13829;48.990;8.346;2023-02-05T11:21:52;6.50;99.90
5055;DHT22;13829;48.990;8.346;2023-02-05T11:24:27;6.60;99.90
5055;DHT22;13829;48.990;8.346;2023-02-05T11:27:27;6.60;99.90
5055;DHT22;13829;48.990;8.346;2023-02-05T11:29:57;6.60;99.90
5055;DHT22;13829;48.990;8.346;2023-02-05T11:32:42;6.60;99.90
5055;DHT22;13829;48.990;8.346;2023-02-05T11:35:19;6.70;99.90
5055;DHT22;13829;48.990;8.346;2023-02-05T11:37:54;6.60;99.90
5055;DHT22;13829;48.990;8.346;2023-02-05T11:40:27;6.60;99.90
5055;DHT22;13829;48.990;8.346;2023-02-05T11:43:03;6.50;99.90
5055;DHT22;13829;48.990;8.346;2023-02-05T11:45:34;6.50;99.90
5055;DHT22;13829;48.990;8.346;2023-02-05T11:48:06;6.40;99.90
5055;DHT22;13829;48.990;8.346;2023-02-05T11:50:50;6.40;99.90
5055;DHT22;13829;48.990;8.346;2023-02-05T11:53:19;6.50;99.90
5055;DHT22;13829;48.990;8.346;2023-02-05T11:55:51;6.50;99.90
5055;DHT22;13829;48.990;8.346;2023-02-05T11:58:23;6.60;99.90
5055;DHT22;13829;48.990;8.346;2023-02-05T12:00:54;6.50;99.90
5055;DHT22;13829;48.990;8.346;2023-02-05T12:03:23;6.50;99.90
5055;DHT22;13829;48.990;8.346;2023-02-05T12:06:01;6.40;99.90
5055;DHT22;13829;48.990;8.346;2023-02-05T12:08:40;6.40;99.90
5055;DHT22;13829;48.990;8.346;2023-02-05T12:11:41;6.40;99.90
5055;DHT22;13829;48.990;8.346;2023-02-05T12:14:35;6.40;99.90
5055;DHT22;13829;48.990;8.346;2023-02-05T12:17:30;6.50;99.90
5055;DHT22;13829;48.990;8.346;2023-02-05T12:20:18;6.50;99.90
5055;DHT22;13829;48.990;8.346;2023-02-05T12:23:08;6.40;99.90
5055;DHT22;13829;48.990;8.346;2023-02-05T12:25:58;6.40;99.90
5055;DHT22;13829;48.990;8.346;2023-02-05T12:28:41;6.50;99.90
5055;DHT22;13829;48.990;8.346;2023-02-05T12:31:20;6.50;99.90
5055;DHT22;13829;48.990;8.346;2023-02-05T12:34:11;6.50;99.90
5055;DHT22;13829;48.990;8.346;2023-02-05T12:37:06;6.50;99.90
5055;DHT22;13829;48.990;8.346;2023-02-05T12:39:45;6.50;99.90
5055;DHT22;13829;48.990;8.346;2023-02-05T12:42:25;6.50;99.90
5055;DHT22;13829;48.990;8.346;2023-02-05T12:45:06;6.50;99.90
5055;DHT22;13829;48.990;8.346;2023-02-05T12:47:59;6.50;99.90
5055;DHT22;13829;48.990;8.346;2023-02-05T12:50:50;6.50;99.90
5055;DHT22;13829;48.990;8.346;2023-02-05T12:53:38;6.60;99.90
5055;DHT22;13829;48.990;8.346;2023-02-05T12:56:39;6.60;99.90
5055;DHT22;13829;48.990;8.346;2023-02-05T12:59:17;6.70;99.90
5055;DHT22;13829;48.990;8.346;2023-02-05T13:01:54;6.70;99.90
5055;DHT22;13829;48.990;8.346;2023-02-05T13:04:28;6.70;99.90
5055;DHT22;13829;48.990;8.346;2023-02-05T13:07:08;6.60;99.90
5055;DHT22;13829;48.990;8.346;2023-02-05T13:09:43;6.70;99.90
5055;DHT22;13829;48.990;8.346;2023-02-05T13:12:18;6.70;99.90
5055;DHT22;13829;48.990;8.346;2023-02-05T13:14:55;6.70;99.90
5055;DHT22;13829;48.990;8.346;2023-02-05T13:17:34;6.80;99.90
5055;DHT22;13829;48.990;8.346;2023-02-05T13:20:11;6.80;99.90
5055;DHT22;13829;48.990;8.346;2023-02-05T13:22:53;6.80;99.90
5055;DHT22;13829;48.990;8.346;2023-02-05T13:25:43;6.80;99.90
5055;DHT22;13829;48.990;8.346;2023-02-05T13:28:37;6.80;99.90
5055;DHT22;13829;48.990;8.346;2023-02-05T13:31:17;6.90;99.90
5055;DHT22;13829;48.990;8.346;2023-02-05T13:33:48;6.90;99.90
5055;DHT22;13829;48.990;8.346;2023-02-05T13:36:57;6.90;99.90
5055;DHT22;13829;48.990;8.346;2023-02-05T13:39:49;6.90;99.90
5055;DHT22;13829;48.990;8.346;2023-02-05T13:42:49;6.80;99.90
5055;DHT22;13829;48.990;8.346;2023-02-05T13:46:00;6.80;99.90
5055;DHT22;13829;48.990;8.346;2023-02-05T13:52:24;6.90;99.90
5055;DHT22;13829;48.990;8.346;2023-02-05T13:55:12;6.80;99.90
5055;DHT22;13829;48.990;8.346;2023-02-05T13:58:14;6.80;99.90
5055;DHT22;13829;48.990;8.346;2023-02-05T14:00:58;6.90;99.90
5055;DHT22;13829;48.990;8.346;2023-02-05T14:03:32;6.90;99.90
5055;DHT22;13829;48.990;8.346;2023-02-05T14:06:14;6.90;99.90
5055;DHT22;13829;48.990;8.346;2023-02-05T14:08:47;6.90;99.90
5055;DHT22;13829;48.990;8.346;2023-02-05T14:11:17;6.90;99.90
5055;DHT22;13829;48.990;8.346;2023-02-05T14:14:12;6.90;99.90
5055;DHT22;13829;48.990;8.346;2023-02-05T14:16:47;6.90;99.90
5055;DHT22;13829;48.990;8.346;2023-02-05T14:19:17;6.80;99.90
5055;DHT22;13829;48.990;8.346;2023-02-05T14:22:02;6.90;99.90
5055;DHT22;13829;48.990;8.346;2023-02-05T14:24:56;6.90;99.90
5055;DHT22;13829;48.990;8.346;2023-02-05T14:27:50;6.90;99.90
5055;DHT22;13829;48.990;8.346;2023-02-05T14:30:51;6.90;99.90
5055;DHT22;13829;48.990;8.346;2023-02-05T14:33:39;6.90;99.90
5055;DHT22;13829;48.990;8.346;2023-02-05T14:36:30;7.00;99.90
5055;DHT22;13829;48.990;8.346;2023-02-05T14:39:04;6.90;99.90
5055;DHT22;13829;48.990;8.346;2023-02-05T14:41:46;6.90;99.90
5055;DHT22;13829;48.990;8.346;2023-02-05T14:44:23;7.00;99.90
5055;DHT22;13829;48.990;8.346;2023-02-05T14:47:02;6.90;99.90
5055;DHT22;13829;48.990;8.346;2023-02-05T14:49:39;6.80;99.90
5055;DHT22;13829;48.990;8.346;2023-02-05T14:52:24;6.80;99.90
5055;DHT22;13829;48.990;8.346;2023-02-05T14:54:55;6.70;99.90
5055;DHT22;13829;48.990;8.346;2023-02-05T14:57:28;6.70;99.90
5055;DHT22;13829;48.990;8.346;2023-02-05T15:00:31;6.70;99.90
5055;DHT22;13829;48.990;8.346;2023-02-05T15:03:25;6.70;99.90
5055;DHT22;13829;48.990;8.346;2023-02-05T15:06:05;6.70;99.90
5055;DHT22;13829;48.990;8.346;2023-02-05T15:08:51;6.70;99.90
5055;DHT22;13829;48.990;8.346;2023-02-05T15:11:27;6.70;99.90
5055;DHT22;13829;48.990;8.346;2023-02-05T15:14:35;6.80;99.90
5055;DHT22;13829;48.990;8.346;2023-02-05T15:17:34;6.90;99.90
5055;DHT22;13829;48.990;8.346;2023-02-05T15:20:27;7.00;99.90
5055;DHT22;13829;48.990;8.346;2023-02-05T15:23:04;6.90;99.90
5055;DHT22;13829;48.990;8.346;2023-02-05T15:25:41;6.90;99.90
5055;DHT22;13829;48.990;8.346;2023-02-05T15:28:23;6.90;99.90
5055;DHT22;13829;48.990;8.346;2023-02-05T15:31:03;6.90;99.90
5055;DHT22;13829;48.990;8.346;2023-02-05T15:33:53;6.80;99.90
5055;DHT22;13829;48.990;8.346;2023-02-05T15:36:30;6.60;99.90
5055;DHT22;13829;48.990;8.346;2023-02-05T15:39:13;6.60;99.90
5055;DHT22;13829;48.990;8.346;2023-02-05T15:41:46;6.60;99.90
5055;DHT22;13829;48.990;8.346;2023-02-05T15:44:20;6.60;99.90
5055;DHT22;13829;48.990;8.346;2023-02-05T15:46:52;6.70;99.90
5055;DHT22;13829;48.990;8.346;2023-02-05T15:49:30;6.80;99.90
5055;DHT22;13829;48.990;8.346;2023-02-05T15:52:01;6.80;99.90
5055;DHT22;13829;48.990;8.346;2023-02-05T15:54:32;6.80;99.90
5055;DHT22;13829;48.990;8.346;2023-02-05T15:57:03;6.80;99.90
5055;DHT22;13829;48.990;8.346;2023-02-05T15:59:31;6.80;99.90
5055;DHT22;13829;48.990;8.346;2023-02-05T16:02:03;6.70;99.90
5055;DHT22;13829;48.990;8.346;2023-02-05T16:04:35;6.80;99.90
5055;DHT22;13829;48.990;8.346;2023-02-05T16:07:16;6.70;99.90
5055;DHT22;13829;48.990;8.346;2023-02-05T16:09:49;6.60;99.90
5055;DHT22;13829;48.990;8.346;2023-02-05T16:12:18;6.70;99.90
5055;DHT22;13829;48.990;8.346;2023-02-05T16:14:45;6.60;99.90
5055;DHT22;13829;48.990;8.346;2023-02-05T16:17:25;6.60;99.90
5055;DHT22;13829;48.990;8.346;2023-02-05T16:20:09;6.60;99.90
5055;DHT22;13829;48.990;8.346;2023-02-05T16:22:46;6.60;99.90
5055;DHT22;13829;48.990;8.346;2023-02-05T16:25:27;6.70;99.90
5055;DHT22;13829;48.990;8.346;2023-02-05T16:28:04;6.60;99.90
5055;DHT22;13829;48.990;8.346;2023-02-05T16:30:37;6.60;99.90
5055;DHT22;13829;48.990;8.346;2023-02-05T16:33:15;6.70;99.90
5055;DHT22;13829;48.990;8.346;2023-02-05T16:35:49;6.70;99.90
5055;DHT22;13829;48.990;8.346;2023-02-05T16:38:19;6.60;99.90
5055;DHT22;13829;48.990;8.346;2023-02-05T16:40:51;6.60;99.90
5055;DHT22;13829;48.990;8.346;2023-02-05T16:43:27;6.60;99.90
5055;DHT22;13829;48.990;8.346;2023-02-05T16:49:01;6.60;99.90
5055;DHT22;13829;48.990;8.346;2023-02-05T16:51:35;6.60;99.90
5055;DHT22;13829;48.990;8.346;2023-02-05T16:54:29;6.60;99.90
5055;DHT22;13829;48.990;8.346;2023-02-05T16:57:09;6.60;99.90